sensor_id;sensor_type;location;lat;lon;timestamp;P1;durP1;ratioP1;P2;durP2;ratioP2
51692;SDS011;37777;53.066;21.638;2022-12-07T00:04:16;37.50;;;16.23;;
51692;SDS011;37777;53.066;21.638;2022-12-07T00:11:19;41.88;;;16.33;;
51692;SDS011;37777;53.066;21.638;2022-12-07T00:18:21;38.92;;;17.17;;
51692;SDS011;37777;53.066;21.638;2022-12-07T00:25:23;43.15;;;17.45;;
51692;SDS011;37777;53.066;21.638;2022-12-07T00:32:24;42.85;;;17.13;;
51692;SDS011;37777;53.066;21.638;2022-12-07T00:39:26;44.20;;;15.68;;
51692;SDS011;37777;53.066;21.638;2022-12-07T00:46:28;38.08;;;15.40;;
51692;SDS011;37777;53.066;21.638;2022-12-07T00:53:31;33.83;;;14.50;;
51692;SDS011;37777;53.066;21.638;2022-12-07T01:00:40;38.17;;;16.57;;
51692;SDS011;37777;53.066;21.638;2022-12-07T01:07:42;32.55;;;14.88;;
51692;SDS011;37777;53.066;21.638;2022-12-07T01:14:44;39.17;;;16.13;;
51692;SDS011;37777;53.066;21.638;2022-12-07T01:21:46;35.15;;;16.27;;
51692;SDS011;37777;53.066;21.638;2022-12-07T01:28:49;35.72;;;15.15;;
51692;SDS011;37777;53.066;21.638;2022-12-07T01:35:51;37.25;;;15.68;;
51692;SDS011;37777;53.066;21.638;2022-12-07T01:42:52;30.90;;;13.80;;
51692;SDS011;37777;53.066;21.638;2022-12-07T01:49:55;32.85;;;15.43;;
51692;SDS011;37777;53.066;21.638;2022-12-07T01:56:56;42.08;;;15.10;;
51692;SDS011;37777;53.066;21.638;2022-12-07T02:03:59;31.38;;;13.85;;
51692;SDS011;37777;53.066;21.638;2022-12-07T02:11:01;36.03;;;14.07;;
51692;SDS011;37777;53.066;21.638;2022-12-07T02:18:13;32.35;;;14.38;;
51692;SDS011;37777;53.066;21.638;2022-12-07T02:46:33;32.33;;;14.77;;
51692;SDS011;37777;53.066;21.638;2022-12-07T02:53:41;29.60;;;15.02;;
51692;SDS011;37777;53.066;21.638;2022-12-07T03:00:52;40.65;;;16.05;;
51692;SDS011;37777;53.066;21.638;2022-12-07T03:08:06;30.48;;;13.38;;
51692;SDS011;37777;53.066;21.638;2022-12-07T03:15:13;33.47;;;13.23;;
51692;SDS011;37777;53.066;21.638;2022-12-07T03:22:16;37.13;;;14.73;;
51692;SDS011;37777;53.066;21.638;2022-12-07T03:29:23;28.20;;;13.23;;
51692;SDS011;37777;53.066;21.638;2022-12-07T03:36:32;31.50;;;14.10;;
51692;SDS011;37777;53.066;21.638;2022-12-07T03:50:47;32.55;;;14.50;;
51692;SDS011;37777;53.066;21.638;2022-12-07T03:57:51;34.70;;;13.48;;
51692;SDS011;37777;53.066;21.638;2022-12-07T04:04:55;36.05;;;14.77;;
51692;SDS011;37777;53.066;21.638;2022-12-07T04:11:57;35.85;;;14.88;;
51692;SDS011;37777;53.066;21.638;2022-12-07T04:18:59;37.42;;;14.55;;
51692;SDS011;37777;53.066;21.638;2022-12-07T04:26:01;40.50;;;16.27;;
51692;SDS011;37777;53.066;21.638;2022-12-07T04:33:02;37.78;;;14.82;;
51692;SDS011;37777;53.066;21.638;2022-12-07T04:40:05;36.80;;;14.57;;
51692;SDS011;37777;53.066;21.638;2022-12-07T04:47:08;36.28;;;14.73;;
51692;SDS011;37777;53.066;21.638;2022-12-07T04:54:11;36.97;;;17.10;;
51692;SDS011;37777;53.066;21.638;2022-12-07T05:01:13;38.70;;;15.35;;
51692;SDS011;37777;53.066;21.638;2022-12-07T05:08:16;37.83;;;14.85;;
51692;SDS011;37777;53.066;21.638;2022-12-07T05:15:18;32.15;;;13.77;;
51692;SDS011;37777;53.066;21.638;2022-12-07T05:22:20;42.40;;;15.18;;
51692;SDS011;37777;53.066;21.638;2022-12-07T05:29:22;22.90;;;11.85;;
51692;SDS011;37777;53.066;21.638;2022-12-07T05:36:24;44.05;;;18.63;;
51692;SDS011;37777;53.066;21.638;2022-12-07T05:43:26;32.22;;;12.13;;
51692;SDS011;37777;53.066;21.638;2022-12-07T05:50:28;35.88;;;14.13;;
51692;SDS011;37777;53.066;21.638;2022-12-07T05:57:30;27.00;;;12.65;;
51692;SDS011;37777;53.066;21.638;2022-12-07T06:04:33;28.33;;;13.18;;
51692;SDS011;37777;53.066;21.638;2022-12-07T06:11:35;29.58;;;12.25;;
51692;SDS011;37777;53.066;21.638;2022-12-07T06:18:56;29.58;;;10.85;;
51692;SDS011;37777;53.066;21.638;2022-12-07T06:25:58;15.40;;;9.32;;
51692;SDS011;37777;53.066;21.638;2022-12-07T06:32:59;25.60;;;11.50;;
51692;SDS011;37777;53.066;21.638;2022-12-07T06:40:01;22.38;;;10.45;;
51692;SDS011;37777;53.066;21.638;2022-12-07T06:47:03;18.90;;;9.63;;
51692;SDS011;37777;53.066;21.638;2022-12-07T06:54:25;20.33;;;9.60;;
51692;SDS011;37777;53.066;21.638;2022-12-07T07:01:27;17.25;;;9.25;;
51692;SDS011;37777;53.066;21.638;2022-12-07T07:08:29;20.85;;;9.68;;
51692;SDS011;37777;53.066;21.638;2022-12-07T07:15:32;23.45;;;10.82;;
51692;SDS011;37777;53.066;21.638;2022-12-07T07:22:34;30.48;;;12.60;;
51692;SDS011;37777;53.066;21.638;2022-12-07T07:29:36;20.27;;;8.73;;
51692;SDS011;37777;53.066;21.638;2022-12-07T07:36:38;27.38;;;10.75;;
51692;SDS011;37777;53.066;21.638;2022-12-07T07:43:40;15.02;;;8.82;;
51692;SDS011;37777;53.066;21.638;2022-12-07T07:50:42;25.27;;;11.27;;
51692;SDS011;37777;53.066;21.638;2022-12-07T07:57:44;21.38;;;8.90;;
51692;SDS011;37777;53.066;21.638;2022-12-07T08:04:53;20.00;;;7.80;;
51692;SDS011;37777;53.066;21.638;2022-12-07T08:11:55;20.95;;;9.18;;
51692;SDS011;37777;53.066;21.638;2022-12-07T08:18:58;9.65;;;7.00;;
51692;SDS011;37777;53.066;21.638;2022-12-07T08:26:01;12.77;;;7.60;;
51692;SDS011;37777;53.066;21.638;2022-12-07T08:33:03;12.15;;;7.13;;
51692;SDS011;37777;53.066;21.638;2022-12-07T08:40:10;15.93;;;8.60;;
51692;SDS011;37777;53.066;21.638;2022-12-07T08:47:12;14.48;;;8.52;;
51692;SDS011;37777;53.066;21.638;2022-12-07T08:54:14;12.35;;;6.70;;
51692;SDS011;37777;53.066;21.638;2022-12-07T09:01:18;13.80;;;8.02;;
51692;SDS011;37777;53.066;21.638;2022-12-07T09:08:20;13.65;;;7.07;;
51692;SDS011;37777;53.066;21.638;2022-12-07T09:15:23;20.58;;;8.45;;
51692;SDS011;37777;53.066;21.638;2022-12-07T09:22:27;12.60;;;8.00;;
51692;SDS011;37777;53.066;21.638;2022-12-07T09:29:29;7.82;;;4.75;;
51692;SDS011;37777;53.066;21.638;2022-12-07T09:36:31;8.25;;;4.95;;
51692;SDS011;37777;53.066;21.638;2022-12-07T09:43:34;3.45;;;3.22;;
51692;SDS011;37777;53.066;21.638;2022-12-07T09:50:37;7.30;;;5.95;;
51692;SDS011;37777;53.066;21.638;2022-12-07T09:57:39;4.70;;;4.25;;
51692;SDS011;37777;53.066;21.638;2022-12-07T10:04:41;9.20;;;6.43;;
51692;SDS011;37777;53.066;21.638;2022-12-07T10:19:25;5.70;;;4.50;;
51692;SDS011;37777;53.066;21.638;2022-12-07T10:40:33;9.07;;;4.32;;
51692;SDS011;37777;53.066;21.638;2022-12-07T10:47:48;22.00;;;10.18;;
51692;SDS011;37777;53.066;21.638;2022-12-07T11:09:55;13.95;;;9.07;;
51692;SDS011;37777;53.066;21.638;2022-12-07T11:17:56;14.93;;;8.50;;
51692;SDS011;37777;53.066;21.638;2022-12-07T11:25:23;18.35;;;10.82;;
51692;SDS011;37777;53.066;21.638;2022-12-07T11:46:24;13.07;;;7.15;;
51692;SDS011;37777;53.066;21.638;2022-12-07T11:53:51;22.65;;;9.27;;
51692;SDS011;37777;53.066;21.638;2022-12-07T12:00:50;11.82;;;7.38;;
51692;SDS011;37777;53.066;21.638;2022-12-07T12:22:40;12.73;;;8.98;;
51692;SDS011;37777;53.066;21.638;2022-12-07T12:29:43;14.30;;;6.45;;
51692;SDS011;37777;53.066;21.638;2022-12-07T12:36:46;10.85;;;6.65;;
51692;SDS011;37777;53.066;21.638;2022-12-07T12:43:49;13.90;;;7.97;;
51692;SDS011;37777;53.066;21.638;2022-12-07T12:51:35;6.82;;;6.10;;
51692;SDS011;37777;53.066;21.638;2022-12-07T13:05:22;9.48;;;6.00;;
51692;SDS011;37777;53.066;21.638;2022-12-07T13:12:25;21.83;;;12.25;;
51692;SDS011;37777;53.066;21.638;2022-12-07T13:26:44;18.13;;;8.63;;
51692;SDS011;37777;53.066;21.638;2022-12-07T13:33:47;23.33;;;13.60;;
51692;SDS011;37777;53.066;21.638;2022-12-07T13:41:10;19.30;;;9.52;;
51692;SDS011;37777;53.066;21.638;2022-12-07T13:48:24;19.27;;;10.90;;
51692;SDS011;37777;53.066;21.638;2022-12-07T13:55:29;11.95;;;6.65;;
51692;SDS011;37777;53.066;21.638;2022-12-07T14:02:32;34.50;;;14.23;;
51692;SDS011;37777;53.066;21.638;2022-12-07T14:09:38;44.03;;;18.27;;
51692;SDS011;37777;53.066;21.638;2022-12-07T14:16:39;32.75;;;15.55;;
51692;SDS011;37777;53.066;21.638;2022-12-07T14:23:41;25.85;;;11.23;;
51692;SDS011;37777;53.066;21.638;2022-12-07T14:30:43;29.90;;;11.70;;
51692;SDS011;37777;53.066;21.638;2022-12-07T14:37:46;38.67;;;13.38;;
51692;SDS011;37777;53.066;21.638;2022-12-07T14:44:48;25.52;;;10.95;;
51692;SDS011;37777;53.066;21.638;2022-12-07T14:51:50;22.35;;;10.68;;
51692;SDS011;37777;53.066;21.638;2022-12-07T14:59:12;29.55;;;13.35;;
51692;SDS011;37777;53.066;21.638;2022-12-07T15:06:15;31.42;;;13.48;;
51692;SDS011;37777;53.066;21.638;2022-12-07T15:13:17;31.38;;;12.80;;
51692;SDS011;37777;53.066;21.638;2022-12-07T15:20:41;31.92;;;14.50;;
51692;SDS011;37777;53.066;21.638;2022-12-07T15:27:43;33.13;;;13.75;;
51692;SDS011;37777;53.066;21.638;2022-12-07T15:34:45;33.15;;;14.82;;
51692;SDS011;37777;53.066;21.638;2022-12-07T15:41:47;35.63;;;14.57;;
51692;SDS011;37777;53.066;21.638;2022-12-07T15:48:51;34.78;;;14.40;;
51692;SDS011;37777;53.066;21.638;2022-12-07T15:55:58;47.72;;;17.50;;
51692;SDS011;37777;53.066;21.638;2022-12-07T16:02:59;33.83;;;12.70;;
51692;SDS011;37777;53.066;21.638;2022-12-07T16:10:01;35.50;;;15.25;;
51692;SDS011;37777;53.066;21.638;2022-12-07T16:17:03;24.00;;;12.13;;
51692;SDS011;37777;53.066;21.638;2022-12-07T16:24:07;9.85;;;6.53;;
51692;SDS011;37777;53.066;21.638;2022-12-07T16:31:14;16.77;;;8.75;;
51692;SDS011;37777;53.066;21.638;2022-12-07T16:38:16;8.35;;;5.65;;
51692;SDS011;37777;53.066;21.638;2022-12-07T16:45:18;18.65;;;9.05;;
51692;SDS011;37777;53.066;21.638;2022-12-07T16:52:21;10.45;;;5.43;;
51692;SDS011;37777;53.066;21.638;2022-12-07T16:59:23;12.93;;;8.73;;
51692;SDS011;37777;53.066;21.638;2022-12-07T17:06:26;14.27;;;7.57;;
51692;SDS011;37777;53.066;21.638;2022-12-07T17:13:30;16.40;;;8.73;;
51692;SDS011;37777;53.066;21.638;2022-12-07T17:20:51;11.48;;;7.05;;
51692;SDS011;37777;53.066;21.638;2022-12-07T17:27:53;23.35;;;9.98;;
51692;SDS011;37777;53.066;21.638;2022-12-07T17:34:55;17.17;;;9.30;;
51692;SDS011;37777;53.066;21.638;2022-12-07T17:41:57;18.67;;;9.63;;
51692;SDS011;37777;53.066;21.638;2022-12-07T17:49:18;24.20;;;12.05;;
51692;SDS011;37777;53.066;21.638;2022-12-07T17:56:20;9.23;;;5.85;;
51692;SDS011;37777;53.066;21.638;2022-12-07T18:03:30;22.65;;;13.00;;
51692;SDS011;37777;53.066;21.638;2022-12-07T18:10:34;19.42;;;10.38;;
51692;SDS011;37777;53.066;21.638;2022-12-07T18:17:36;15.55;;;9.70;;
51692;SDS011;37777;53.066;21.638;2022-12-07T18:24:40;14.35;;;7.00;;
51692;SDS011;37777;53.066;21.638;2022-12-07T18:31:42;18.70;;;9.70;;
51692;SDS011;37777;53.066;21.638;2022-12-07T18:38:45;20.83;;;11.30;;
51692;SDS011;37777;53.066;21.638;2022-12-07T18:45:50;7.45;;;6.40;;
51692;SDS011;37777;53.066;21.638;2022-12-07T18:53:00;14.48;;;7.85;;
51692;SDS011;37777;53.066;21.638;2022-12-07T19:00:06;10.20;;;7.13;;
51692;SDS011;37777;53.066;21.638;2022-12-07T19:07:10;18.50;;;9.57;;
51692;SDS011;37777;53.066;21.638;2022-12-07T19:14:13;22.63;;;11.93;;
51692;SDS011;37777;53.066;21.638;2022-12-07T19:21:16;25.50;;;10.85;;
51692;SDS011;37777;53.066;21.638;2022-12-07T19:28:19;22.92;;;11.07;;
51692;SDS011;37777;53.066;21.638;2022-12-07T19:35:21;20.98;;;11.45;;
51692;SDS011;37777;53.066;21.638;2022-12-07T19:42:23;27.33;;;11.05;;
51692;SDS011;37777;53.066;21.638;2022-12-07T19:49:26;34.88;;;15.40;;
51692;SDS011;37777;53.066;21.638;2022-12-07T19:56:31;15.23;;;9.40;;
51692;SDS011;37777;53.066;21.638;2022-12-07T20:03:36;20.13;;;9.90;;
51692;SDS011;37777;53.066;21.638;2022-12-07T20:10:40;22.20;;;9.57;;
51692;SDS011;37777;53.066;21.638;2022-12-07T20:17:43;18.98;;;7.00;;
51692;SDS011;37777;53.066;21.638;2022-12-07T20:24:45;4.82;;;4.05;;
51692;SDS011;37777;53.066;21.638;2022-12-07T20:31:48;27.35;;;8.98;;
51692;SDS011;37777;53.066;21.638;2022-12-07T20:38:52;11.35;;;8.32;;
51692;SDS011;37777;53.066;21.638;2022-12-07T20:45:56;24.10;;;7.93;;
51692;SDS011;37777;53.066;21.638;2022-12-07T20:52:59;22.25;;;10.57;;
51692;SDS011;37777;53.066;21.638;2022-12-07T21:00:03;31.05;;;14.13;;
51692;SDS011;37777;53.066;21.638;2022-12-07T21:07:07;6.78;;;5.30;;
51692;SDS011;37777;53.066;21.638;2022-12-07T21:14:09;19.33;;;11.25;;
51692;SDS011;37777;53.066;21.638;2022-12-07T21:21:16;4.65;;;4.35;;
51692;SDS011;37777;53.066;21.638;2022-12-07T21:28:23;13.98;;;5.63;;
51692;SDS011;37777;53.066;21.638;2022-12-07T21:35:25;22.45;;;9.57;;
51692;SDS011;37777;53.066;21.638;2022-12-07T21:42:27;25.80;;;11.30;;
51692;SDS011;37777;53.066;21.638;2022-12-07T21:49:29;22.60;;;10.88;;
51692;SDS011;37777;53.066;21.638;2022-12-07T21:56:35;9.38;;;6.10;;
51692;SDS011;37777;53.066;21.638;2022-12-07T22:03:37;9.13;;;6.60;;
51692;SDS011;37777;53.066;21.638;2022-12-07T22:10:39;22.65;;;10.68;;
51692;SDS011;37777;53.066;21.638;2022-12-07T22:17:40;15.77;;;9.18;;
51692;SDS011;37777;53.066;21.638;2022-12-07T22:24:42;10.80;;;7.88;;
51692;SDS011;37777;53.066;21.638;2022-12-07T22:31:45;13.98;;;9.18;;
51692;SDS011;37777;53.066;21.638;2022-12-07T22:38:54;7.93;;;6.55;;
51692;SDS011;37777;53.066;21.638;2022-12-07T22:45:56;6.45;;;5.18;;
51692;SDS011;37777;53.066;21.638;2022-12-07T22:52:59;7.85;;;5.75;;
51692;SDS011;37777;53.066;21.638;2022-12-07T23:00:01;11.80;;;7.60;;
51692;SDS011;37777;53.066;21.638;2022-12-07T23:07:03;8.27;;;6.53;;
51692;SDS011;37777;53.066;21.638;2022-12-07T23:14:08;8.15;;;6.50;;
51692;SDS011;37777;53.066;21.638;2022-12-07T23:21:10;4.30;;;3.80;;
51692;SDS011;37777;53.066;21.638;2022-12-07T23:28:12;3.78;;;3.47;;
51692;SDS011;37777;53.066;21.638;2022-12-07T23:35:14;11.02;;;5.13;;
51692;SDS011;37777;53.066;21.638;2022-12-07T23:42:16;5.15;;;3.92;;
51692;SDS011;37777;53.066;21.638;2022-12-07T23:49:18;3.42;;;3.13;;
51692;SDS011;37777;53.066;21.638;2022-12-07T23:56:21;7.72;;;4.28;;
